createdAt,value
2024-04-24T00:00:04.107Z,170.33
2024-04-24T00:00:34.939Z,171.00
2024-04-24T00:01:05.771Z,172.67
2024-04-24T00:01:36.649Z,173.00
2024-04-24T00:02:07.738Z,176.00
2024-04-24T00:02:38.670Z,178.00
2024-04-24T00:03:10.356Z,183.00
2024-04-24T00:03:41.614Z,190.00
2024-04-24T00:04:12.477Z,192.33
2024-04-24T00:04:43.350Z,189.67
2024-04-24T00:05:14.189Z,184.33
2024-04-24T00:05:45.046Z,177.00
2024-04-24T00:06:16.521Z,171.33
2024-04-24T00:06:47.326Z,169.00
2024-04-24T00:07:18.302Z,169.67
2024-04-24T00:07:49.446Z,174.00
2024-04-24T00:08:20.275Z,178.33
2024-04-24T00:08:51.099Z,176.67
2024-04-24T00:09:21.946Z,169.67
2024-04-24T00:09:52.740Z,164.00
2024-04-24T00:10:23.594Z,160.33
2024-04-24T00:10:54.555Z,152.33
2024-04-24T00:11:26.961Z,147.00
2024-04-24T00:11:57.880Z,136.67
2024-04-24T00:12:28.792Z,128.33
2024-04-24T00:12:59.641Z,125.33
2024-04-24T00:13:30.451Z,129.33
2024-04-24T00:14:01.295Z,137.00
2024-04-24T00:14:32.353Z,144.33
2024-04-24T00:15:03.852Z,150.33
2024-04-24T00:15:34.966Z,153.00
2024-04-24T00:16:06.023Z,153.33
2024-04-24T00:16:36.922Z,151.00
2024-04-24T00:17:07.842Z,149.00
2024-04-24T00:17:38.690Z,147.67
2024-04-24T00:18:09.649Z,148.00
2024-04-24T00:18:41.434Z,145.67
2024-04-24T00:19:12.325Z,140.00
2024-04-24T00:19:43.235Z,134.00
2024-04-24T00:20:14.061Z,130.33
2024-04-24T00:20:44.977Z,127.00
2024-04-24T00:21:15.817Z,125.00
2024-04-24T00:21:46.619Z,127.00
2024-04-24T00:22:17.495Z,129.33
2024-04-24T00:22:48.522Z,133.00
2024-04-24T00:23:19.452Z,134.00
2024-04-24T00:23:50.348Z,134.67
2024-04-24T00:24:21.489Z,135.00
2024-04-24T00:24:52.266Z,135.33
2024-04-24T00:25:23.092Z,135.33
2024-04-24T00:25:57.036Z,136.33
2024-04-24T00:26:28.070Z,138.33
2024-04-24T00:26:59.396Z,145.00
2024-04-24T00:27:30.246Z,153.67
2024-04-24T00:28:01.244Z,159.00
2024-04-24T00:28:32.378Z,163.33
2024-04-24T00:29:03.330Z,172.67
2024-04-24T00:29:34.210Z,180.00
2024-04-24T00:30:05.548Z,185.33
2024-04-24T00:30:36.374Z,186.33
2024-04-24T00:31:07.374Z,185.00
2024-04-24T00:31:38.193Z,185.00
2024-04-24T00:32:09.139Z,183.67
2024-04-24T00:32:40.638Z,183.33
2024-04-24T00:33:11.725Z,182.00
2024-04-24T00:33:42.691Z,181.33
2024-04-24T00:34:13.600Z,182.67
2024-04-24T00:34:44.598Z,183.67
2024-04-24T00:35:15.569Z,181.00
2024-04-24T00:35:46.507Z,178.67
2024-04-24T00:36:17.385Z,175.33
2024-04-24T00:36:48.171Z,164.33
2024-04-24T00:37:18.965Z,155.67
2024-04-24T00:37:49.791Z,152.00
2024-04-24T00:38:20.786Z,148.00
2024-04-24T00:38:51.703Z,144.00
2024-04-24T00:39:22.526Z,142.33
2024-04-24T00:39:53.312Z,139.67
2024-04-24T00:40:24.156Z,135.67
2024-04-24T00:40:55.001Z,133.67
2024-04-24T00:41:25.864Z,133.33
2024-04-24T00:41:56.735Z,132.33
2024-04-24T00:42:27.628Z,136.67
2024-04-24T00:42:58.448Z,140.00
2024-04-24T00:43:29.327Z,141.67
2024-04-24T00:44:00.161Z,144.00
2024-04-24T00:44:31.039Z,146.33
2024-04-24T00:45:01.908Z,153.67
2024-04-24T00:45:32.751Z,163.00
2024-04-24T00:46:04.502Z,177.00
2024-04-24T00:46:36.757Z,196.00
2024-04-24T00:47:08.629Z,201.00
2024-04-24T00:47:40.726Z,196.67
2024-04-24T00:48:12.297Z,193.33
2024-04-24T00:48:44.796Z,197.33
2024-04-24T00:49:18.788Z,194.00
2024-04-24T00:49:51.875Z,190.33
2024-04-24T00:50:24.211Z,188.67
2024-04-24T00:50:56.480Z,187.67
2024-04-24T00:51:29.002Z,186.00
2024-04-24T00:51:59.834Z,184.33
2024-04-24T00:52:30.850Z,184.00
2024-04-24T00:53:02.744Z,183.33
2024-04-24T00:53:34.747Z,183.00
2024-04-24T00:54:06.377Z,182.00
2024-04-24T00:54:37.721Z,181.67
2024-04-24T00:55:09.075Z,181.00
2024-04-24T00:55:40.830Z,179.67
2024-04-24T00:56:12.333Z,178.67
2024-04-24T00:56:43.685Z,178.00
2024-04-24T00:57:15.059Z,177.33
2024-04-24T00:57:46.021Z,176.00
2024-04-24T00:58:17.637Z,173.00
2024-04-24T00:58:50.809Z,166.33
2024-04-24T00:59:22.842Z,153.00
2024-04-24T00:59:53.740Z,142.33
2024-04-24T01:00:25.070Z,144.67
2024-04-24T01:00:56.744Z,148.67
2024-04-24T01:01:27.938Z,151.67
2024-04-24T01:01:59.043Z,153.67
2024-04-24T01:02:30.193Z,155.33
2024-04-24T01:03:04.301Z,156.33
2024-04-24T01:03:35.257Z,157.67
2024-04-24T01:04:06.100Z,159.67
2024-04-24T01:04:37.510Z,162.33
2024-04-24T01:05:08.391Z,169.33
2024-04-24T01:05:39.435Z,180.67
2024-04-24T01:06:10.240Z,194.67
2024-04-24T01:06:41.046Z,202.67
2024-04-24T01:07:12.046Z,202.33
2024-04-24T01:07:43.030Z,195.00
2024-04-24T01:08:13.891Z,190.33
2024-04-24T01:08:44.874Z,190.00
2024-04-24T01:09:15.696Z,194.33
2024-04-24T01:09:46.560Z,204.67
2024-04-24T01:10:18.586Z,210.67
2024-04-24T01:10:59.694Z,213.33
2024-04-24T01:11:33.903Z,211.33
2024-04-24T01:12:05.005Z,204.33
2024-04-24T01:12:35.954Z,201.00
2024-04-24T01:13:06.850Z,199.33
2024-04-24T01:13:37.663Z,196.33
2024-04-24T01:14:08.928Z,189.33
2024-04-24T01:14:40.044Z,185.33
2024-04-24T01:15:11.558Z,184.00
2024-04-24T01:15:44.344Z,183.33
2024-04-24T01:16:18.179Z,184.00
2024-04-24T01:16:49.884Z,187.00
2024-04-24T01:17:21.556Z,203.00
2024-04-24T01:17:54.981Z,218.67
2024-04-24T01:18:29.369Z,224.67
2024-04-24T01:19:07.300Z,225.67
2024-04-24T01:19:46.406Z,226.00
2024-04-24T01:20:22.834Z,226.33
2024-04-24T01:20:56.426Z,227.67
2024-04-24T01:21:44.911Z,223.67
2024-04-24T01:22:48.442Z,217.00
2024-04-24T01:23:32.406Z,213.67
2024-04-24T01:24:15.812Z,211.00
2024-04-24T01:25:20.553Z,210.00
2024-04-24T01:26:07.310Z,211.33
2024-04-24T01:26:43.844Z,213.67
2024-04-24T01:27:17.254Z,216.00
2024-04-24T01:27:48.726Z,221.33
2024-04-24T01:28:21.464Z,226.67
2024-04-24T01:28:53.702Z,228.00
2024-04-24T01:29:24.558Z,232.67
2024-04-24T01:29:55.630Z,236.33
2024-04-24T01:30:26.525Z,238.67
2024-04-24T01:31:00.056Z,239.00
2024-04-24T01:31:31.127Z,240.67
2024-04-24T01:32:02.110Z,238.33
2024-04-24T01:32:33.115Z,234.33
2024-04-24T01:33:04.599Z,234.00
2024-04-24T01:33:38.153Z,237.67
2024-04-24T01:34:09.196Z,236.00
2024-04-24T01:34:40.038Z,233.67
2024-04-24T01:35:10.931Z,232.00
2024-04-24T01:35:43.690Z,228.67
2024-04-24T01:36:14.493Z,223.33
2024-04-24T01:36:45.333Z,214.33
2024-04-24T01:37:16.153Z,207.33
2024-04-24T01:37:47.035Z,205.33
2024-04-24T01:38:18.019Z,206.33
2024-04-24T01:38:48.986Z,207.00
2024-04-24T01:39:19.918Z,206.33
2024-04-24T01:39:50.694Z,203.33
2024-04-24T01:40:21.585Z,200.67
2024-04-24T01:40:52.478Z,200.67
2024-04-24T01:41:23.424Z,202.00
2024-04-24T01:41:54.242Z,203.33
2024-04-24T01:42:25.036Z,204.33
2024-04-24T01:42:56.101Z,205.67
2024-04-24T01:43:27.001Z,206.67
2024-04-24T01:43:57.854Z,204.33
2024-04-24T01:44:28.772Z,193.33
2024-04-24T01:44:59.679Z,179.67
2024-04-24T01:45:30.579Z,167.33
2024-04-24T01:46:02.844Z,155.00
2024-04-24T01:46:33.645Z,154.00
2024-04-24T01:47:04.489Z,152.33
2024-04-24T01:47:35.541Z,150.33
2024-04-24T01:48:06.913Z,149.67
2024-04-24T01:48:37.883Z,147.00
2024-04-24T01:49:08.781Z,151.67
2024-04-24T01:49:39.590Z,157.33
2024-04-24T01:50:10.427Z,163.33
2024-04-24T01:50:41.344Z,165.33
2024-04-24T01:51:12.127Z,168.00
2024-04-24T01:51:42.973Z,170.33
2024-04-24T01:52:13.791Z,171.33
2024-04-24T01:52:44.568Z,172.67
2024-04-24T01:53:15.461Z,173.00
2024-04-24T01:53:46.307Z,173.33
2024-04-24T01:54:17.125Z,174.00
2024-04-24T01:54:48.059Z,174.00
2024-04-24T01:55:18.893Z,175.00
2024-04-24T01:55:49.712Z,176.00
2024-04-24T01:56:20.546Z,179.33
2024-04-24T01:56:51.686Z,185.00
2024-04-24T01:57:22.588Z,190.00
2024-04-24T01:57:53.408Z,198.00
2024-04-24T01:58:24.297Z,207.67
2024-04-24T01:58:55.128Z,215.33
2024-04-24T01:59:26.021Z,221.67
2024-04-24T01:59:56.850Z,228.33
2024-04-24T02:00:27.679Z,230.00
2024-04-24T02:00:58.555Z,230.33
2024-04-24T02:01:29.808Z,234.67
2024-04-24T02:02:00.695Z,239.00
2024-04-24T02:02:31.624Z,241.00
2024-04-24T02:03:02.617Z,239.00
2024-04-24T02:03:33.447Z,242.33
2024-04-24T02:04:04.429Z,249.00
2024-04-24T02:04:35.223Z,256.00
2024-04-24T02:05:06.390Z,258.33
2024-04-24T02:05:37.926Z,260.67
2024-04-24T02:06:08.729Z,265.33
2024-04-24T02:06:39.539Z,272.67
2024-04-24T02:07:10.300Z,275.00
2024-04-24T02:07:41.116Z,272.33
2024-04-24T02:08:11.941Z,272.33
2024-04-24T02:08:42.732Z,276.00
2024-04-24T02:09:13.543Z,275.67
2024-04-24T02:09:44.376Z,279.33
2024-04-24T02:10:15.235Z,283.67
2024-04-24T02:10:46.050Z,287.00
2024-04-24T02:11:20.253Z,290.67
2024-04-24T02:11:59.468Z,292.00
2024-04-24T02:12:38.447Z,285.00
2024-04-24T02:13:09.279Z,280.67
2024-04-24T02:13:40.177Z,275.33
2024-04-24T02:14:11.034Z,272.00
2024-04-24T02:14:41.826Z,269.67
2024-04-24T02:15:12.747Z,268.67
2024-04-24T02:15:43.551Z,266.67
2024-04-24T02:16:14.351Z,262.00
2024-04-24T02:16:45.331Z,254.33
2024-04-24T02:17:16.480Z,248.00
2024-04-24T02:17:47.496Z,243.67
2024-04-24T02:18:18.366Z,237.33
2024-04-24T02:18:49.576Z,233.00
2024-04-24T02:19:20.440Z,229.00
2024-04-24T02:19:51.324Z,227.67
2024-04-24T02:20:22.351Z,228.00
2024-04-24T02:20:53.197Z,227.00
2024-04-24T02:21:23.960Z,226.00
2024-04-24T02:21:54.759Z,226.67
2024-04-24T02:22:25.592Z,226.00
2024-04-24T02:22:57.069Z,226.33
2024-04-24T02:23:31.478Z,229.00
2024-04-24T02:24:02.316Z,230.67
2024-04-24T02:24:51.517Z,231.67
2024-04-24T02:25:34.559Z,232.00
2024-04-24T02:26:08.885Z,223.00
2024-04-24T02:26:39.797Z,210.33
2024-04-24T02:27:10.592Z,207.00
2024-04-24T02:27:41.380Z,208.33
2024-04-24T02:28:12.295Z,212.00
2024-04-24T02:28:43.143Z,213.67
2024-04-24T02:29:14.004Z,217.33
2024-04-24T02:29:51.806Z,222.33
2024-04-24T02:30:27.068Z,250.67
2024-04-24T02:30:57.871Z,258.67
2024-04-24T02:31:28.814Z,260.33
2024-04-24T02:31:59.688Z,262.00
2024-04-24T02:32:30.891Z,261.33
2024-04-24T02:33:02.676Z,262.67
2024-04-24T02:33:33.665Z,264.00
2024-04-24T02:34:04.591Z,267.67
2024-04-24T02:34:35.402Z,271.33
2024-04-24T02:35:06.404Z,277.67
2024-04-24T02:35:37.261Z,280.67
2024-04-24T02:36:08.131Z,286.00
2024-04-24T02:36:38.939Z,291.00
2024-04-24T02:37:09.735Z,296.67
2024-04-24T02:37:40.554Z,301.00
2024-04-24T02:38:11.342Z,301.33
2024-04-24T02:38:42.156Z,303.67
2024-04-24T02:39:13.037Z,306.33
2024-04-24T02:39:43.849Z,306.33
2024-04-24T02:40:14.692Z,308.00
2024-04-24T02:40:45.556Z,312.33
2024-04-24T02:41:16.469Z,309.33
2024-04-24T02:41:47.389Z,308.67
2024-04-24T02:42:18.172Z,311.00
2024-04-24T02:42:49.251Z,309.67
2024-04-24T02:43:20.036Z,308.33
2024-04-24T02:43:50.912Z,307.00
2024-04-24T02:44:21.930Z,304.33
2024-04-24T02:44:52.925Z,302.00
2024-04-24T02:45:23.740Z,301.00
2024-04-24T02:45:54.793Z,301.00
2024-04-24T02:46:25.583Z,300.00
2024-04-24T02:46:56.466Z,299.00
2024-04-24T02:47:27.389Z,298.67
2024-04-24T02:47:58.391Z,298.00
2024-04-24T02:48:29.343Z,297.00
2024-04-24T02:49:00.212Z,297.00
2024-04-24T02:49:31.095Z,296.33
2024-04-24T02:50:01.973Z,294.00
2024-04-24T02:50:32.891Z,287.33
2024-04-24T02:51:03.902Z,280.00
2024-04-24T02:51:34.755Z,277.00
2024-04-24T02:52:05.778Z,278.33
2024-04-24T02:52:36.620Z,279.67
2024-04-24T02:53:07.418Z,281.33
2024-04-24T02:53:38.219Z,283.33
2024-04-24T02:54:09.043Z,285.00
2024-04-24T02:54:39.849Z,290.33
2024-04-24T02:55:10.687Z,297.00
2024-04-24T02:55:41.488Z,303.33
2024-04-24T02:56:12.368Z,308.33
2024-04-24T02:56:43.177Z,310.33
2024-04-24T02:57:13.946Z,312.67
2024-04-24T02:57:45.063Z,317.00
2024-04-24T02:58:15.831Z,320.67
2024-04-24T02:58:46.665Z,323.00
2024-04-24T02:59:17.625Z,320.00
2024-04-24T02:59:48.537Z,314.33
2024-04-24T03:00:19.359Z,313.00
2024-04-24T03:00:50.210Z,312.00
2024-04-24T03:01:21.052Z,311.33
2024-04-24T03:01:51.927Z,310.33
2024-04-24T03:02:22.848Z,309.67
2024-04-24T03:02:53.855Z,309.00
2024-04-24T03:03:24.672Z,309.00
2024-04-24T03:03:56.145Z,309.00
2024-04-24T03:04:26.931Z,310.00
2024-04-24T03:04:57.798Z,311.00
2024-04-24T03:05:28.639Z,313.00
2024-04-24T03:05:59.506Z,315.67
2024-04-24T03:06:30.328Z,317.33
2024-04-24T03:07:01.105Z,320.00
2024-04-24T03:07:31.880Z,322.33
2024-04-24T03:08:02.951Z,324.00
2024-04-24T03:08:33.952Z,326.00
2024-04-24T03:09:04.785Z,326.00
2024-04-24T03:09:35.566Z,325.67
2024-04-24T03:10:06.566Z,325.00
2024-04-24T03:10:37.367Z,325.00
2024-04-24T03:11:08.315Z,325.00
2024-04-24T03:11:39.446Z,325.00
2024-04-24T03:12:10.351Z,325.00
2024-04-24T03:12:41.164Z,325.00
2024-04-24T03:13:11.932Z,326.33
2024-04-24T03:13:42.802Z,327.67
2024-04-24T03:14:18.815Z,329.33
2024-04-24T03:14:49.656Z,331.67
2024-04-24T03:15:20.441Z,332.67
2024-04-24T03:15:51.301Z,336.00
2024-04-24T03:16:31.947Z,341.33
2024-04-24T03:17:02.940Z,343.33
2024-04-24T03:17:36.523Z,345.00
2024-04-24T03:18:08.539Z,345.67
2024-04-24T03:18:42.596Z,346.33
2024-04-24T03:19:13.512Z,348.00
2024-04-24T03:19:44.308Z,348.33
2024-04-24T03:20:15.167Z,350.00
2024-04-24T03:20:46.639Z,352.67
2024-04-24T03:21:21.116Z,352.67
2024-04-24T03:21:51.998Z,351.00
2024-04-24T03:22:22.853Z,351.00
2024-04-24T03:22:53.662Z,352.00
2024-04-24T03:23:24.524Z,354.33
2024-04-24T03:23:55.418Z,357.33
2024-04-24T03:24:27.052Z,363.00
2024-04-24T03:24:58.014Z,369.00
2024-04-24T03:25:28.810Z,370.00
2024-04-24T03:25:59.616Z,369.00
2024-04-24T03:26:30.402Z,367.67
2024-04-24T03:27:01.362Z,363.33
2024-04-24T03:27:32.881Z,360.33
2024-04-24T03:28:04.005Z,358.67
2024-04-24T03:28:34.914Z,355.00
2024-04-24T03:29:05.791Z,346.67
2024-04-24T03:29:38.711Z,334.67
2024-04-24T03:30:09.776Z,321.33
2024-04-24T03:30:40.580Z,315.00
2024-04-24T03:31:11.373Z,312.67
2024-04-24T03:31:42.259Z,309.33
2024-04-24T03:32:13.089Z,306.67
2024-04-24T03:32:44.168Z,310.33
2024-04-24T03:33:15.221Z,317.00
2024-04-24T03:34:13.158Z,320.67
2024-04-24T03:34:46.160Z,322.67
2024-04-24T03:35:16.935Z,322.67
2024-04-24T03:35:47.757Z,321.00
2024-04-24T03:36:18.510Z,317.67
2024-04-24T03:36:49.318Z,315.33
2024-04-24T03:37:20.159Z,314.00
2024-04-24T03:37:50.925Z,315.00
2024-04-24T03:38:21.893Z,313.00
2024-04-24T03:38:53.555Z,312.00
2024-04-24T03:39:24.302Z,311.33
2024-04-24T03:39:55.049Z,310.00
2024-04-24T03:40:25.853Z,307.00
2024-04-24T03:40:56.654Z,304.67
2024-04-24T03:41:27.689Z,300.00
2024-04-24T03:41:58.527Z,296.67
2024-04-24T03:42:29.392Z,292.33
2024-04-24T03:43:00.194Z,290.00
2024-04-24T03:43:31.023Z,289.33
2024-04-24T03:44:01.887Z,291.00
2024-04-24T03:44:32.696Z,291.00
2024-04-24T03:45:03.935Z,290.67
2024-04-24T03:45:34.716Z,288.00
2024-04-24T03:46:05.503Z,284.67
2024-04-24T03:46:36.429Z,282.00
2024-04-24T03:47:07.303Z,282.67
2024-04-24T03:47:38.240Z,283.67
2024-04-24T03:48:09.172Z,283.00
2024-04-24T03:48:41.938Z,281.67
2024-04-24T03:49:13.002Z,280.00
2024-04-24T03:49:43.806Z,283.67
2024-04-24T03:50:14.638Z,286.33
2024-04-24T03:50:45.455Z,284.67
2024-04-24T03:51:16.341Z,277.00
2024-04-24T03:51:47.105Z,270.67
2024-04-24T03:52:19.647Z,267.67
2024-04-24T03:52:50.488Z,268.33
2024-04-24T03:53:22.458Z,270.67
2024-04-24T03:53:53.475Z,272.00
2024-04-24T03:54:24.321Z,273.67
2024-04-24T03:54:55.135Z,274.67
2024-04-24T03:55:25.918Z,275.00
2024-04-24T03:55:56.770Z,275.67
2024-04-24T03:56:27.697Z,277.00
2024-04-24T03:56:58.545Z,276.33
2024-04-24T03:57:29.359Z,273.00
2024-04-24T03:58:00.211Z,268.33
2024-04-24T03:58:31.029Z,263.33
2024-04-24T03:59:02.014Z,262.00
2024-04-24T03:59:32.843Z,261.67
2024-04-24T04:00:03.999Z,262.67
2024-04-24T04:00:34.923Z,261.33
2024-04-24T04:01:05.823Z,259.67
2024-04-24T04:01:36.630Z,258.33
2024-04-24T04:02:07.583Z,256.67
2024-04-24T04:02:38.470Z,255.67
2024-04-24T04:03:09.465Z,253.00
2024-04-24T04:03:40.298Z,250.33
2024-04-24T04:04:11.307Z,250.00
2024-04-24T04:04:42.115Z,246.67
2024-04-24T04:05:13.246Z,243.67
2024-04-24T04:05:44.047Z,240.67
2024-04-24T04:06:14.825Z,237.00
2024-04-24T04:06:45.609Z,235.67
2024-04-24T04:07:16.401Z,235.00
2024-04-24T04:07:47.290Z,234.00
2024-04-24T04:08:19.915Z,232.67
2024-04-24T04:08:50.772Z,231.33
2024-04-24T04:09:21.573Z,230.00
2024-04-24T04:09:52.349Z,227.00
2024-04-24T04:10:23.102Z,224.67
2024-04-24T04:10:53.982Z,225.67
2024-04-24T04:11:24.948Z,227.33
2024-04-24T04:11:55.883Z,227.67
2024-04-24T04:12:26.825Z,227.67
2024-04-24T04:12:57.675Z,227.00
2024-04-24T04:13:28.459Z,228.00
2024-04-24T04:13:59.297Z,229.00
2024-04-24T04:14:30.186Z,227.67
2024-04-24T04:15:01.038Z,223.33
2024-04-24T04:15:31.875Z,215.00
2024-04-24T04:16:02.838Z,208.33
2024-04-24T04:16:33.878Z,207.33
2024-04-24T04:17:04.925Z,209.67
2024-04-24T04:17:36.591Z,213.33
2024-04-24T04:18:07.482Z,217.33
2024-04-24T04:18:38.363Z,219.33
2024-04-24T04:19:09.212Z,220.67
2024-04-24T04:19:40.020Z,221.67
2024-04-24T04:20:11.116Z,221.67
2024-04-24T04:20:41.874Z,221.00
2024-04-24T04:21:12.710Z,221.00
2024-04-24T04:21:43.590Z,221.67
2024-04-24T04:22:17.108Z,222.00
2024-04-24T04:22:47.979Z,223.00
2024-04-24T04:23:18.975Z,223.67
2024-04-24T04:23:49.763Z,224.00
2024-04-24T04:24:20.584Z,224.00
2024-04-24T04:24:51.389Z,224.33
2024-04-24T04:25:22.159Z,225.00
2024-04-24T04:25:53.017Z,224.67
2024-04-24T04:26:24.503Z,221.67
2024-04-24T04:26:55.308Z,216.33
2024-04-24T04:27:27.131Z,212.67
2024-04-24T04:27:58.805Z,214.00
2024-04-24T04:28:29.612Z,215.33
2024-04-24T04:29:00.454Z,216.00
2024-04-24T04:29:31.296Z,215.00
2024-04-24T04:30:02.355Z,207.33
2024-04-24T04:30:33.126Z,200.67
2024-04-24T04:31:03.903Z,200.67
2024-04-24T04:31:34.664Z,203.00
2024-04-24T04:32:05.526Z,205.67
2024-04-24T04:32:36.523Z,207.33
2024-04-24T04:33:07.585Z,208.67
2024-04-24T04:34:21.565Z,211.00
2024-04-24T04:34:52.757Z,216.00
2024-04-24T04:35:23.613Z,219.33
2024-04-24T04:35:54.575Z,231.00
2024-04-24T04:36:25.359Z,245.67
2024-04-24T04:36:56.165Z,258.33
2024-04-24T04:37:26.918Z,267.00
2024-04-24T04:37:57.723Z,270.00
2024-04-24T04:38:28.539Z,271.00
2024-04-24T04:38:59.421Z,271.33
2024-04-24T04:39:30.287Z,269.00
2024-04-24T04:40:02.437Z,269.00
2024-04-24T04:40:33.197Z,269.00
2024-04-24T04:41:04.028Z,272.00
2024-04-24T04:41:34.862Z,277.00
2024-04-24T04:42:05.727Z,279.33
2024-04-24T04:42:36.516Z,282.00
2024-04-24T04:43:07.456Z,287.33
2024-04-24T04:43:38.296Z,298.67
2024-04-24T04:44:09.259Z,307.00
2024-04-24T04:44:40.054Z,311.67
2024-04-24T04:45:10.993Z,311.00
2024-04-24T04:45:41.860Z,310.00
2024-04-24T04:46:12.709Z,312.33
2024-04-24T04:46:43.643Z,315.33
2024-04-24T04:47:14.532Z,317.00
2024-04-24T04:47:45.754Z,320.33
2024-04-24T04:48:16.740Z,321.00
2024-04-24T04:48:50.216Z,318.67
2024-04-24T04:49:22.667Z,313.33
2024-04-24T04:49:53.486Z,310.67
2024-04-24T04:50:24.502Z,309.00
2024-04-24T04:50:55.977Z,309.00
2024-04-24T04:51:26.763Z,305.33
2024-04-24T04:51:57.572Z,302.67
2024-04-24T04:52:30.111Z,301.00
2024-04-24T04:53:00.989Z,300.00
2024-04-24T04:53:31.789Z,299.33
2024-04-24T04:54:03.116Z,299.00
2024-04-24T04:54:33.980Z,298.67
2024-04-24T04:55:05.144Z,298.00
2024-04-24T04:55:35.952Z,297.33
2024-04-24T04:56:08.386Z,295.33
2024-04-24T04:56:39.824Z,295.00
2024-04-24T04:57:10.618Z,295.00
2024-04-24T04:57:41.594Z,294.67
2024-04-24T04:58:12.429Z,294.00
2024-04-24T04:58:43.203Z,293.67
2024-04-24T04:59:14.143Z,292.33
2024-04-24T04:59:45.165Z,291.00
2024-04-24T05:00:16.192Z,290.00
2024-04-24T05:00:47.008Z,289.67
2024-04-24T05:01:17.886Z,288.67
2024-04-24T05:01:48.699Z,287.33
2024-04-24T05:02:20.987Z,286.33
2024-04-24T05:02:52.158Z,286.00
2024-04-24T05:03:23.068Z,286.00
2024-04-24T05:03:53.911Z,287.67
2024-04-24T05:04:24.834Z,288.00
2024-04-24T05:04:55.695Z,288.00
2024-04-24T05:05:26.630Z,286.67
2024-04-24T05:05:57.499Z,285.33
2024-04-24T05:06:28.435Z,285.33
2024-04-24T05:06:59.214Z,289.67
2024-04-24T05:07:30.036Z,293.33
2024-04-24T05:08:00.857Z,294.00
2024-04-24T05:08:31.760Z,294.00
2024-04-24T05:09:03.054Z,294.00
2024-04-24T05:09:35.481Z,293.33
2024-04-24T05:10:06.454Z,293.00
2024-04-24T05:10:37.571Z,293.33
2024-04-24T05:11:08.454Z,295.33
2024-04-24T05:11:39.412Z,304.00
2024-04-24T05:12:10.229Z,320.33
2024-04-24T05:12:41.038Z,325.33
2024-04-24T05:13:16.228Z,321.67
2024-04-24T05:13:47.013Z,318.00
2024-04-24T05:14:18.008Z,316.00
2024-04-24T05:14:50.937Z,315.00
2024-04-24T05:15:21.729Z,313.67
2024-04-24T05:15:52.550Z,312.33
2024-04-24T05:16:23.358Z,311.33
2024-04-24T05:16:54.343Z,310.33
2024-04-24T05:17:25.294Z,309.00
2024-04-24T05:17:56.403Z,306.00
2024-04-24T05:18:27.522Z,298.33
2024-04-24T05:18:58.375Z,291.00
2024-04-24T05:19:29.228Z,288.33
2024-04-24T05:20:00.047Z,288.33
2024-04-24T05:20:30.917Z,289.33
2024-04-24T05:21:01.952Z,290.33
2024-04-24T05:21:32.793Z,291.00
2024-04-24T05:22:03.621Z,291.67
2024-04-24T05:22:46.499Z,292.00
2024-04-24T05:23:17.293Z,292.00
2024-04-24T05:23:48.108Z,292.00
2024-04-24T05:24:18.924Z,292.00
2024-04-24T05:24:49.788Z,292.67
2024-04-24T05:25:21.787Z,293.00
2024-04-24T05:25:55.135Z,293.00
2024-04-24T05:26:44.360Z,293.00
2024-04-24T05:27:34.078Z,292.33
2024-04-24T05:28:26.744Z,290.00
2024-04-24T05:29:10.706Z,289.33
2024-04-24T05:29:41.560Z,290.67
2024-04-24T05:30:12.428Z,291.00
2024-04-24T05:30:43.347Z,291.00
2024-04-24T05:31:14.182Z,290.67
2024-04-24T05:31:45.141Z,291.33
2024-04-24T05:32:15.990Z,292.00
2024-04-24T05:32:49.694Z,292.00
2024-04-24T05:33:20.625Z,292.67
2024-04-24T05:33:51.568Z,294.00
2024-04-24T05:34:23.498Z,294.00
2024-04-24T05:34:55.241Z,294.00
2024-04-24T05:35:26.217Z,293.67
2024-04-24T05:35:57.085Z,291.67
2024-04-24T05:36:28.089Z,287.00
2024-04-24T05:36:58.886Z,286.67
2024-04-24T05:37:29.659Z,287.00
2024-04-24T05:38:00.597Z,287.67
2024-04-24T05:38:31.527Z,286.67
2024-04-24T05:39:02.601Z,284.67
2024-04-24T05:39:33.363Z,284.00
2024-04-24T05:40:04.741Z,283.33
2024-04-24T05:40:35.735Z,282.33
2024-04-24T05:41:06.542Z,281.33
2024-04-24T05:42:23.145Z,281.67
2024-04-24T05:42:54.132Z,283.00
2024-04-24T05:43:24.942Z,283.00
2024-04-24T05:43:55.821Z,283.00
2024-04-24T05:44:28.066Z,282.00
2024-04-24T05:44:58.921Z,279.67
2024-04-24T05:45:29.725Z,278.00
2024-04-24T05:46:00.542Z,278.33
2024-04-24T05:46:31.315Z,279.00
2024-04-24T05:47:03.231Z,279.00
2024-04-24T05:47:34.148Z,278.67
2024-04-24T05:48:05.414Z,277.00
2024-04-24T05:48:36.357Z,277.00
2024-04-24T05:49:07.174Z,278.00
2024-04-24T05:49:38.022Z,280.33
2024-04-24T05:50:08.904Z,287.67
2024-04-24T05:50:39.830Z,301.33
2024-04-24T05:51:10.614Z,310.67
2024-04-24T05:51:41.997Z,310.00
2024-04-24T05:52:12.899Z,306.00
2024-04-24T05:52:43.699Z,305.33
2024-04-24T05:53:14.517Z,304.00
2024-04-24T05:53:45.458Z,303.33
2024-04-24T05:54:16.282Z,303.00
2024-04-24T05:54:47.043Z,303.33
2024-04-24T05:55:18.063Z,304.67
2024-04-24T05:55:49.004Z,303.67
2024-04-24T05:56:19.838Z,303.00
2024-04-24T05:56:50.672Z,302.00
2024-04-24T05:57:25.255Z,300.67
2024-04-24T05:57:57.385Z,294.33
2024-04-24T05:58:28.178Z,279.67
2024-04-24T05:58:59.003Z,265.33
2024-04-24T05:59:29.883Z,256.67
2024-04-24T06:00:00.736Z,254.00
2024-04-24T06:00:31.518Z,255.33
2024-04-24T06:01:02.508Z,258.67
2024-04-24T06:01:33.362Z,260.67
2024-04-24T06:02:04.208Z,260.00
2024-04-24T06:02:35.307Z,261.00
2024-04-24T06:03:08.782Z,262.00
2024-04-24T06:03:39.662Z,265.00
2024-04-24T06:04:10.462Z,266.67
2024-04-24T06:04:41.404Z,273.00
2024-04-24T06:05:12.699Z,279.00
2024-04-24T06:05:43.564Z,280.00
2024-04-24T06:06:14.382Z,280.00
2024-04-24T06:06:45.169Z,280.33
2024-04-24T06:07:15.927Z,281.00
2024-04-24T06:07:46.689Z,280.67
2024-04-24T06:08:17.502Z,279.33
2024-04-24T06:08:48.307Z,278.00
2024-04-24T06:09:19.130Z,277.67
2024-04-24T06:09:49.889Z,270.67
2024-04-24T06:10:20.668Z,261.67
2024-04-24T06:10:52.827Z,256.33
2024-04-24T06:11:23.783Z,252.67
2024-04-24T06:11:54.783Z,246.67
2024-04-24T06:12:25.793Z,242.00
2024-04-24T06:12:56.648Z,239.67
2024-04-24T06:13:27.436Z,234.00
2024-04-24T06:13:58.221Z,232.67
2024-04-24T06:14:30.113Z,233.00
2024-04-24T06:15:00.925Z,232.67
2024-04-24T06:15:35.273Z,232.00
2024-04-24T06:16:06.942Z,227.33
2024-04-24T06:16:37.724Z,230.00
2024-04-24T06:17:09.410Z,236.00
2024-04-24T06:17:40.429Z,240.00
2024-04-24T06:18:12.686Z,242.00
2024-04-24T06:18:44.533Z,249.33
2024-04-24T06:19:15.417Z,267.00
2024-04-24T06:19:46.271Z,274.67
2024-04-24T06:20:17.644Z,272.33
2024-04-24T06:20:48.553Z,269.67
2024-04-24T06:21:19.332Z,269.00
2024-04-24T06:21:50.138Z,268.00
2024-04-24T06:22:20.996Z,267.33
2024-04-24T06:22:51.818Z,266.00
2024-04-24T06:23:22.717Z,263.00
2024-04-24T06:23:53.608Z,259.33
2024-04-24T06:24:24.400Z,256.33
2024-04-24T06:24:55.244Z,255.33
2024-04-24T06:25:25.995Z,253.67
2024-04-24T06:25:56.832Z,251.67
2024-04-24T06:26:27.651Z,249.67
2024-04-24T06:26:58.467Z,248.33
2024-04-24T06:27:29.738Z,248.00
2024-04-24T06:28:00.733Z,248.00
2024-04-24T06:28:31.528Z,248.00
2024-04-24T06:29:02.359Z,247.33
2024-04-24T06:29:33.250Z,247.00
2024-04-24T06:30:05.421Z,247.67
2024-04-24T06:30:36.291Z,248.00
2024-04-24T06:31:07.155Z,248.00
2024-04-24T06:31:38.230Z,247.00
2024-04-24T06:32:09.162Z,247.00
2024-04-24T06:32:40.095Z,248.00
2024-04-24T06:33:11.118Z,251.33
2024-04-24T06:33:42.018Z,266.00
2024-04-24T06:34:12.866Z,269.67
2024-04-24T06:34:43.717Z,266.33
2024-04-24T06:35:17.502Z,265.00